Terminal Aerodrome Forecast
Issued by NWS

Home | Current Version | Previous Version | Text Only | Print | Product List | Glossary On
Versions: 1 2 3 4 5 6 7 8 9 10 11 12 13 14 15 16 17 18 19
000
FTUS45 KGJT 292320
TAFRIL
TAF
KRIL 292320Z 3000/3024 33013G20KT P6SM VCSH SCT090 BKN110
     FM300200 30006KT P6SM VCSH OVC090
     FM300600 VRB03KT P6SM BKN080
     FM301200 VRB03KT P6SM VCFG SCT020 BKN060
     FM302100 33005KT P6SM BKN060=

USA.gov is the U.S. government's official web portal to all federal, state and local government web resources and services.